Time;durP1;ratioP1;P1;durP2;ratioP2;P2;SDS_P1;SDS_P2;PMS_P1;PMS_P2;Temp;Humidity;BMP_temperature;BMP_pressure;BME280_temperature;BME280_humidity;BME280_pressure;Samples;Min_cycle;Max_cycle;Signal;HPM_P1;HPM_P2
2021/01/31 00:01:25;;;;;;;;;;;;;;;7.92;67.03;98702.13;4975399;28;19913;-81
2021/01/31 00:04:09;;;;;;;;;;;;;;;7.76;67.64;98697.81;4994377;28;20376;-80
2021/01/31 00:06:55;;;;;;;;;;;;;;;7.72;67.96;98697.69;4997492;28;19914;-80
2021/01/31 00:09:39;;;;;;;;;;;;;;;7.67;67.75;98685.22;5003733;28;19914;-81
2021/01/31 00:12:25;;;;;;;;;;;;;;;7.62;68.05;98688.16;4985748;28;19914;-80
2021/01/31 00:15:11;;;;;;;;;;;;;;;7.66;68.72;98688.28;4995202;28;19913;-80
2021/01/31 00:17:56;;;;;;;;;;;;;;;7.65;68.95;98682.09;4990714;28;19913;-78
2021/01/31 00:20:43;;;;;;;;;;;;;;;7.77;68.40;98677.75;4990529;28;19914;-80
2021/01/31 00:23:28;;;;;;;;;;;;;;;7.74;68.29;98671.91;4986030;28;19914;-80
2021/01/31 00:26:12;;;;;;;;;;;;;;;7.81;68.72;98667.81;4993036;28;19918;-80
2021/01/31 00:28:57;;;;;;;;;;;;;;;7.79;69.04;98664.66;4995039;28;20368;-80
2021/01/31 00:31:49;;;;;;;;;;;;;;;7.88;69.39;98659.84;5007795;28;19913;-80
2021/01/31 00:34:33;;;;;;;;;;;;;;;7.80;69.01;98660.81;5001747;28;19913;-79
2021/01/31 00:37:18;;;;;;;;;;;;;;;7.83;69.31;98660.91;4993892;28;20297;-80
2021/01/31 00:40:05;;;;;;;;;;;;;;;7.82;69.76;98663.97;4988962;28;19921;-79
2021/01/31 00:42:50;;;;;;;;;;;;;;;7.80;69.88;98683.25;4990411;28;19914;-80
2021/01/31 00:45:34;;;;;;;;;;;;;;;7.89;69.94;98697.41;4977445;28;19913;-79
2021/01/31 00:48:19;;;;;;;;;;;;;;;7.95;69.84;98695.22;4989497;28;19914;-78
2021/01/31 00:51:05;;;;;;;;;;;;;;;8.04;69.08;98704.75;4985672;28;19913;-78
2021/01/31 00:53:50;;;;;;;;;;;;;;;8.05;69.43;98698.22;4990885;28;19918;-78
2021/01/31 00:56:34;;;;;;;;;;;;;;;8.09;69.30;98703.72;4976756;28;19913;-78
2021/01/31 00:59:19;;;;;;;;;;;;;;;8.12;69.14;98706.53;4975752;28;19917;-78
2021/01/31 01:02:09;;;;;;;;;;;;;;;8.11;68.85;98698.75;4972685;28;19913;-81
2021/01/31 01:04:55;;;;;;;;;;;;;;;8.12;69.06;98698.41;4975178;28;19913;-78
2021/01/31 01:07:40;;;;;;;;;;;;;;;7.97;69.05;98698.38;4990629;28;19914;-78
2021/01/31 01:10:27;;;;;;;;;;;;;;;7.89;69.22;98707.44;5000948;28;20312;-80
2021/01/31 01:13:11;;;;;;;;;;;;;;;7.92;69.50;98699.44;4974455;28;19909;-80
2021/01/31 01:15:56;;;;;;;;;;;;;;;7.80;69.81;98685.16;4985686;28;20292;-81
2021/01/31 01:18:40;;;;;;;;;;;;;;;7.70;69.83;98692.66;4998560;28;20392;-81
2021/01/31 01:21:25;;;;;;;;;;;;;;;7.59;70.12;98686.16;4982104;28;19921;-79
2021/01/31 01:24:10;;;;;;;;;;;;;;;7.62;70.20;98693.59;4980551;28;19913;-81
2021/01/31 01:26:54;;;;;;;;;;;;;;;7.68;70.32;98694.13;4988098;28;19913;-80
2021/01/31 01:29:40;;;;;;;;;;;;;;;7.73;70.35;98694.66;4989004;28;19914;-80
2021/01/31 01:32:25;;;;;;;;;;;;;;;7.66;70.45;98699.91;4984347;28;19918;-78
2021/01/31 01:35:10;;;;;;;;;;;;;;;7.72;70.38;98687.66;4973212;28;20396;-78
2021/01/31 01:37:55;;;;;;;;;;;;;;;7.79;70.66;98697.91;4980364;28;19913;-79
2021/01/31 01:40:40;;;;;;;;;;;;;;;7.74;71.22;98687.34;4988225;28;19918;-80
2021/01/31 01:43:27;;;;;;;;;;;;;;;7.70;71.04;98691.88;4973780;28;19913;-77
2021/01/31 01:46:18;;;;;;;;;;;;;;;7.73;71.35;98691.97;4990787;28;19913;-78
2021/01/31 01:49:22;;;;;;;;;;;;;;;7.91;70.62;98695.16;4972284;28;19913;-78
2021/01/31 01:52:13;;;;;;;;;;;;;;;7.97;70.61;98688.34;4972884;28;19913;-79
2021/01/31 01:55:08;;;;;;;;;;;;;;;8.01;70.58;98694.63;4987938;28;19914;-78
2021/01/31 01:57:53;;;;;;;;;;;;;;;8.00;70.55;98690.34;4973340;28;19917;-78
2021/01/31 02:00:40;;;;;;;;;;;;;;;8.00;70.84;98693.06;4964303;28;19922;-78
2021/01/31 02:03:27;;;;;;;;;;;;;;;7.97;70.86;98695.69;4988973;28;19917;-78
2021/01/31 02:06:14;;;;;;;;;;;;;;;7.98;70.98;98689.91;5004968;28;19913;-78
2021/01/31 02:08:59;;;;;;;;;;;;;;;7.93;71.63;98690.16;4986532;28;19913;-79
2021/01/31 02:11:43;;;;;;;;;;;;;;;7.97;71.50;98690.28;4978501;28;19917;-78
2021/01/31 02:14:29;;;;;;;;;;;;;;;7.99;71.50;98690.69;4976937;28;19913;-78
2021/01/31 02:17:21;;;;;;;;;;;;;;;8.05;71.70;98689.31;4994057;28;19914;-77
2021/01/31 02:20:06;;;;;;;;;;;;;;;7.96;71.38;98691.41;4978920;28;19918;-79
2021/01/31 02:22:50;;;;;;;;;;;;;;;7.93;71.79;98687.44;4992436;28;19913;-78
2021/01/31 02:25:53;;;;;;;;;;;;;;;8.02;71.90;98679.97;4988014;28;19913;-78
2021/01/31 02:28:38;;;;;;;;;;;;;;;7.98;71.26;98679.06;4993298;28;19913;-79
2021/01/31 02:31:35;;;;;;;;;;;;;;;7.96;71.58;98681.38;5002844;28;19917;-79
2021/01/31 02:34:46;;;;;;;;;;;;;;;7.81;71.98;98682.13;4994296;28;20388;-80
2021/01/31 02:37:31;;;;;;;;;;;;;;;7.80;72.30;98675.13;4987102;28;19913;-80
2021/01/31 02:40:23;;;;;;;;;;;;;;;7.71;72.71;98669.91;4982179;28;19918;-80
2021/01/31 02:43:12;;;;;;;;;;;;;;;7.72;73.07;98674.16;4982695;28;20380;-80
2021/01/31 02:45:59;;;;;;;;;;;;;;;7.72;72.76;98676.06;4978865;28;19914;-79
2021/01/31 02:48:50;;;;;;;;;;;;;;;7.70;72.57;98671.03;4982117;28;19914;-79
2021/01/31 02:51:43;;;;;;;;;;;;;;;7.66;72.64;98669.34;5005754;28;19921;-80
2021/01/31 02:54:33;;;;;;;;;;;;;;;7.71;72.73;98672.59;5005378;28;20000;-81
2021/01/31 02:57:29;;;;;;;;;;;;;;;7.78;72.56;98661.16;4981657;28;19913;-80
2021/01/31 03:00:34;;;;;;;;;;;;;;;7.76;72.60;98659.94;5004716;28;19918;-82
2021/01/31 03:03:32;;;;;;;;;;;;;;;7.71;72.52;98659.06;4998392;28;19913;-79
2021/01/31 03:06:21;;;;;;;;;;;;;;;7.73;72.58;98664.91;4974645;28;19922;-80
2021/01/31 03:09:17;;;;;;;;;;;;;;;7.72;72.66;98660.63;4996146;28;19913;-80
2021/01/31 03:12:09;;;;;;;;;;;;;;;7.79;73.23;98648.41;4989702;28;19913;-80
2021/01/31 03:14:59;;;;;;;;;;;;;;;7.86;72.34;98648.63;4965908;28;20396;-79
2021/01/31 03:17:55;;;;;;;;;;;;;;;7.94;72.65;98650.34;4986922;28;19918;-78
2021/01/31 03:20:49;;;;;;;;;;;;;;;8.01;72.42;98651.34;4987058;28;19918;-79
2021/01/31 03:23:58;;;;;;;;;;;;;;;8.07;72.25;98643.75;4981980;28;20307;-79
2021/01/31 03:26:48;;;;;;;;;;;;;;;8.17;71.81;98640.50;4966917;28;19914;-79
2021/01/31 03:29:33;;;;;;;;;;;;;;;8.10;71.20;98634.91;4969148;28;19917;-80
2021/01/31 03:32:26;;;;;;;;;;;;;;;8.06;72.03;98634.06;4996278;28;19917;-80
2021/01/31 03:35:13;;;;;;;;;;;;;;;8.14;71.76;98633.88;4994792;28;19913;-82
2021/01/31 03:38:13;;;;;;;;;;;;;;;8.02;72.47;98633.19;4981304;28;19914;-79
2021/01/31 03:40:59;;;;;;;;;;;;;;;8.09;71.72;98634.13;4999801;28;19917;-78
2021/01/31 03:43:43;;;;;;;;;;;;;;;8.19;71.30;98624.69;4995173;28;19917;-78
2021/01/31 03:46:27;;;;;;;;;;;;;;;8.28;70.97;98633.41;4948459;28;19914;-81
2021/01/31 03:49:16;;;;;;;;;;;;;;;8.16;71.55;98625.41;4952222;28;20388;-79
2021/01/31 03:52:01;;;;;;;;;;;;;;;8.27;71.68;98634.56;4962413;28;19914;-80
2021/01/31 03:54:47;;;;;;;;;;;;;;;8.28;72.18;98621.81;4966027;28;20303;-80
2021/01/31 03:57:41;;;;;;;;;;;;;;;8.07;72.46;98622.09;4993966;28;20299;-79
2021/01/31 04:00:28;;;;;;;;;;;;;;;8.09;72.48;98620.59;4967969;28;19917;-78
2021/01/31 04:03:17;;;;;;;;;;;;;;;8.09;73.02;98608.97;4994609;28;20351;-77
2021/01/31 04:06:07;;;;;;;;;;;;;;;8.19;72.72;98611.16;4969782;28;19914;-78
2021/01/31 04:08:53;;;;;;;;;;;;;;;8.24;72.50;98605.47;4949137;28;19914;-79
2021/01/31 04:11:40;;;;;;;;;;;;;;;8.20;72.23;98604.59;4960500;28;19914;-79
2021/01/31 04:14:33;;;;;;;;;;;;;;;8.21;72.18;98610.81;4975302;28;20292;-80
2021/01/31 04:17:17;;;;;;;;;;;;;;;8.23;71.46;98612.00;4993517;28;20288;-80
2021/01/31 04:20:02;;;;;;;;;;;;;;;8.26;72.13;98597.00;4979459;28;19922;-80
2021/01/31 04:22:46;;;;;;;;;;;;;;;8.36;72.29;98601.91;4993446;28;19913;-80
2021/01/31 04:25:31;;;;;;;;;;;;;;;8.40;71.57;98598.16;4967208;28;20380;-79
2021/01/31 04:28:18;;;;;;;;;;;;;;;8.18;72.10;98591.41;4984219;28;19914;-79
2021/01/31 04:31:02;;;;;;;;;;;;;;;8.27;71.83;98590.47;4978746;28;19913;-79
2021/01/31 04:33:47;;;;;;;;;;;;;;;8.20;71.71;98585.66;4980921;28;19913;-78
2021/01/31 04:36:32;;;;;;;;;;;;;;;8.30;71.03;98589.78;4960049;28;20324;-80
2021/01/31 04:39:16;;;;;;;;;;;;;;;8.32;71.30;98590.22;4996026;28;19917;-77
2021/01/31 04:42:01;;;;;;;;;;;;;;;8.22;71.49;98586.09;5009729;22;19925;-83
2021/01/31 04:44:48;;;;;;;;;;;;;;;8.33;70.93;98579.03;5000675;28;19921;-83
2021/01/31 04:47:36;;;;;;;;;;;;;;;8.39;70.79;98577.63;4991833;28;19913;-84
2021/01/31 04:50:24;;;;;;;;;;;;;;;8.07;72.23;98576.06;5002525;28;19917;-84
2021/01/31 04:53:14;;;;;;;;;;;;;;;8.04;71.99;98582.19;4982307;28;19914;-83
2021/01/31 04:56:02;;;;;;;;;;;;;;;7.98;72.94;98580.88;4985612;28;19914;-83
2021/01/31 04:58:48;;;;;;;;;;;;;;;7.92;73.46;98579.59;4983703;28;19913;-82
2021/01/31 05:01:33;;;;;;;;;;;;;;;7.90;73.14;98584.53;4981127;28;19913;-82
2021/01/31 05:04:17;;;;;;;;;;;;;;;7.91;73.52;98583.41;4999200;28;19913;-82
2021/01/31 05:07:04;;;;;;;;;;;;;;;7.92;73.54;98574.16;4993763;28;19913;-84
2021/01/31 05:09:49;;;;;;;;;;;;;;;7.91;73.34;98578.00;4968307;28;19914;-82
2021/01/31 05:12:40;;;;;;;;;;;;;;;8.10;72.49;98578.06;4981404;28;19914;-82
2021/01/31 05:15:27;;;;;;;;;;;;;;;8.04;73.10;98585.66;4982780;28;20372;-82
2021/01/31 05:18:13;;;;;;;;;;;;;;;8.05;73.13;98575.63;4979002;28;19914;-82
2021/01/31 05:21:01;;;;;;;;;;;;;;;7.90;73.60;98579.13;4995474;28;19918;-82
2021/01/31 05:23:53;;;;;;;;;;;;;;;7.91;72.75;98575.28;4995243;28;19913;-82
2021/01/31 05:26:40;;;;;;;;;;;;;;;7.89;72.62;98577.56;4980583;28;20388;-82
2021/01/31 05:29:34;;;;;;;;;;;;;;;7.89;72.40;98577.56;4993540;28;19914;-82
2021/01/31 05:32:19;;;;;;;;;;;;;;;7.89;72.16;98577.56;4994784;28;20331;-81
2021/01/31 05:35:19;;;;;;;;;;;;;;;7.89;72.15;98572.16;4994146;28;19914;-82
2021/01/31 05:38:04;;;;;;;;;;;;;;;7.85;72.21;98577.47;5001180;28;19913;-82
2021/01/31 05:40:48;;;;;;;;;;;;;;;7.84;71.97;98581.31;4985750;28;19917;-81
2021/01/31 05:43:33;;;;;;;;;;;;;;;7.82;71.69;98588.22;4997615;28;19918;-83
2021/01/31 05:46:17;;;;;;;;;;;;;;;7.86;71.73;98589.09;4988604;28;19914;-83
2021/01/31 05:49:02;;;;;;;;;;;;;;;7.78;72.22;98590.03;4998762;28;20288;-83
2021/01/31 05:51:47;;;;;;;;;;;;;;;7.78;71.95;98598.94;4998680;28;19914;-83
2021/01/31 05:54:35;;;;;;;;;;;;;;;7.82;71.69;98599.03;4987880;28;19913;-82
2021/01/31 05:57:39;;;;;;;;;;;;;;;7.89;70.97;98612.72;4983893;28;19914;-83
2021/01/31 06:00:27;;;;;;;;;;;;;;;8.00;70.80;98617.28;4989179;28;19918;-83
2021/01/31 06:03:17;;;;;;;;;;;;;;;8.27;69.78;98621.03;4985843;28;19913;-82
2021/01/31 06:06:14;;;;;;;;;;;;;;;8.30;69.07;98631.19;4985334;28;19913;-83
2021/01/31 06:09:11;;;;;;;;;;;;;;;8.04;70.42;98628.19;4988531;28;19913;-83
2021/01/31 06:12:03;;;;;;;;;;;;;;;7.90;70.89;98631.34;4994500;28;19914;-83
2021/01/31 06:14:49;;;;;;;;;;;;;;;7.97;70.69;98641.56;4976154;28;20402;-83
2021/01/31 06:17:34;;;;;;;;;;;;;;;8.10;69.99;98643.03;4989998;28;20297;-82
2021/01/31 06:20:25;;;;;;;;;;;;;;;8.11;69.89;98650.81;4957946;28;19917;-80
2021/01/31 06:23:25;;;;;;;;;;;;;;;7.94;70.74;98655.78;4988858;28;20310;-83
2021/01/31 06:26:25;;;;;;;;;;;;;;;7.95;71.17;98662.75;4972637;28;19914;-83
2021/01/31 06:29:17;;;;;;;;;;;;;;;7.82;71.85;98667.47;4984149;28;19913;-83
2021/01/31 06:32:11;;;;;;;;;;;;;;;7.84;71.70;98673.31;4986723;28;19914;-83
2021/01/31 06:35:07;;;;;;;;;;;;;;;7.77;72.40;98680.47;4973032;28;19921;-81
2021/01/31 06:37:52;;;;;;;;;;;;;;;7.80;72.42;98682.47;5000005;28;19921;-82
2021/01/31 06:40:52;;;;;;;;;;;;;;;7.72;72.91;98690.38;4998048;28;20293;-82
2021/01/31 06:44:01;;;;;;;;;;;;;;;7.81;72.27;98687.53;4988089;28;19914;-82
2021/01/31 06:46:52;;;;;;;;;;;;;;;7.69;72.94;98693.78;5005921;28;19914;-83
2021/01/31 06:49:43;;;;;;;;;;;;;;;7.84;72.04;98700.34;4989498;28;19913;-83
2021/01/31 06:52:55;;;;;;;;;;;;;;;7.76;72.57;98705.94;4977601;28;19914;-83
2021/01/31 06:55:55;;;;;;;;;;;;;;;7.63;73.18;98716.78;4965303;28;20500;-81
2021/01/31 06:58:40;;;;;;;;;;;;;;;7.61;73.49;98723.69;5005167;28;19918;-82
2021/01/31 07:01:41;;;;;;;;;;;;;;;7.62;72.91;98714.44;4994493;28;19918;-83
2021/01/31 07:04:32;;;;;;;;;;;;;;;7.65;72.84;98719.16;4992803;28;19917;-83
2021/01/31 07:07:16;;;;;;;;;;;;;;;7.70;72.23;98727.81;5004154;28;19914;-82
2021/01/31 07:10:14;;;;;;;;;;;;;;;7.80;71.98;98725.75;5004939;28;19929;-83
2021/01/31 07:13:18;;;;;;;;;;;;;;;7.65;72.79;98736.19;4979058;28;19913;-83
2021/01/31 07:16:18;;;;;;;;;;;;;;;7.61;72.96;98742.63;4998864;28;19914;-82
2021/01/31 07:19:18;;;;;;;;;;;;;;;7.58;73.09;98752.19;4975795;28;20364;-82
2021/01/31 07:22:13;;;;;;;;;;;;;;;7.80;72.30;98747.41;5006227;28;19918;-82
2021/01/31 07:25:02;;;;;;;;;;;;;;;7.77;72.58;98748.88;5003851;28;19913;-82
2021/01/31 07:27:49;;;;;;;;;;;;;;;7.87;72.01;98745.69;4988480;28;19913;-82
2021/01/31 07:30:42;;;;;;;;;;;;;;;7.89;72.00;98746.13;4970192;28;19913;-83
2021/01/31 07:33:45;;;;;;;;;;;;;;;7.65;72.75;98747.00;4978892;28;19914;-81
2021/01/31 07:36:53;;;;;;;;;;;;;;;7.67;72.68;98754.75;5006105;28;19913;-82
2021/01/31 07:39:48;;;;;;;;;;;;;;;7.66;73.33;98748.59;4987075;28;19918;-82
2021/01/31 07:42:35;;;;;;;;;;;;;;;7.66;73.46;98764.81;4990047;28;20376;-81
2021/01/31 07:45:25;;;;;;;;;;;;;;;7.65;73.26;98768.66;4974910;28;19914;-83
2021/01/31 07:48:31;;;;;;;;;;;;;;;7.62;73.95;98769.31;5002530;28;19914;-82
2021/01/31 07:51:39;;;;;;;;;;;;;;;7.71;73.34;98778.09;4999037;28;20380;-82
2021/01/31 07:54:27;;;;;;;;;;;;;;;7.66;73.71;98778.34;4982450;28;20380;-82
2021/01/31 07:57:24;;;;;;;;;;;;;;;7.72;73.82;98782.34;4987362;28;19914;-82
2021/01/31 08:00:19;;;;;;;;;;;;;;;7.79;73.76;98781.00;5000298;28;20376;-83
2021/01/31 08:03:15;;;;;;;;;;;;;;;7.44;74.35;98792.38;4980127;28;19913;-77
2021/01/31 08:06:08;;;;;;;;;;;;;;;7.55;74.82;98804.28;4979312;28;19918;-77
2021/01/31 08:08:53;;;;;;;;;;;;;;;7.84;74.01;98805.88;4990176;28;19913;-77
2021/01/31 08:11:37;;;;;;;;;;;;;;;7.73;73.88;98811.00;4995901;28;19918;-79
2021/01/31 08:14:41;;;;;;;;;;;;;;;7.58;74.57;98811.72;4997118;28;20392;-77
2021/01/31 08:17:44;;;;;;;;;;;;;;;7.40;76.16;98813.09;4968161;28;19917;-78
2021/01/31 08:20:31;;;;;;;;;;;;;;;7.29;76.88;98807.38;4988389;28;19918;-78
2021/01/31 08:23:22;;;;;;;;;;;;;;;7.46;76.45;98813.66;4997427;28;19914;-77
2021/01/31 08:26:07;;;;;;;;;;;;;;;7.65;76.12;98817.34;4997062;28;20392;-77
2021/01/31 08:28:54;;;;;;;;;;;;;;;7.50;76.58;98820.75;4979373;28;19917;-77
2021/01/31 08:31:59;;;;;;;;;;;;;;;7.49;77.33;98821.09;4982443;28;20297;-80
2021/01/31 08:35:01;;;;;;;;;;;;;;;7.69;76.74;98822.84;4997932;28;19914;-77
2021/01/31 08:37:49;;;;;;;;;;;;;;;7.80;76.28;98815.81;4977862;28;19918;-80
2021/01/31 08:40:33;;;;;;;;;;;;;;;8.00;76.11;98809.44;4999772;28;19917;-79
2021/01/31 08:43:25;;;;;;;;;;;;;;;8.45;75.04;98809.13;5005268;28;19914;-79
2021/01/31 08:46:14;;;;;;;;;;;;;;;8.68;73.61;98806.63;4998213;28;19914;-78
2021/01/31 08:48:59;;;;;;;;;;;;;;;8.92;72.81;98816.50;4985553;28;19917;-77
2021/01/31 08:51:44;;;;;;;;;;;;;;;8.85;72.36;98819.03;4994478;28;20376;-78
2021/01/31 08:54:29;;;;;;;;;;;;;;;9.12;71.12;98823.56;4977899;28;19922;-79
2021/01/31 08:57:16;;;;;;;;;;;;;;;9.04;71.35;98827.22;4975778;28;19953;-79
2021/01/31 09:00:23;;;;;;;;;;;;;;;8.88;71.78;98831.91;4993005;28;20296;-79
2021/01/31 09:03:07;;;;;;;;;;;;;;;8.87;72.12;98831.09;4986842;28;19914;-79
2021/01/31 09:05:52;;;;;;;;;;;;;;;8.83;71.86;98838.38;4985596;28;19913;-78
2021/01/31 09:08:38;;;;;;;;;;;;;;;8.74;72.40;98834.22;4994951;28;19913;-79
2021/01/31 09:11:23;;;;;;;;;;;;;;;8.48;73.73;98838.22;4977298;28;19914;-78
2021/01/31 09:14:09;;;;;;;;;;;;;;;8.28;74.92;98854.69;4991951;28;19913;-81
2021/01/31 09:17:05;;;;;;;;;;;;;;;8.22;74.90;98859.56;4995501;28;19914;-79
2021/01/31 09:19:50;;;;;;;;;;;;;;;8.17;75.29;98865.22;4982600;28;20295;-78
2021/01/31 09:22:37;;;;;;;;;;;;;;;8.10;75.29;98865.78;4985993;28;19914;-79
2021/01/31 09:25:22;;;;;;;;;;;;;;;8.09;75.64;98868.84;4988531;28;19913;-79
2021/01/31 09:28:17;;;;;;;;;;;;;;;8.11;75.06;98877.41;4976973;28;19917;-79
2021/01/31 09:31:02;;;;;;;;;;;;;;;8.12;75.27;98881.69;4986066;28;19914;-79
2021/01/31 09:33:53;;;;;;;;;;;;;;;8.28;76.21;98876.34;4995974;28;19913;-79
2021/01/31 09:36:39;;;;;;;;;;;;;;;8.23;74.75;98895.53;4982182;28;20284;-79
2021/01/31 09:39:23;;;;;;;;;;;;;;;8.05;76.50;98911.25;4996320;28;19913;-79
2021/01/31 09:42:08;;;;;;;;;;;;;;;8.18;75.98;98891.13;4999306;28;19918;-78
2021/01/31 09:45:03;;;;;;;;;;;;;;;8.54;75.31;98880.19;4998230;28;19914;-79
2021/01/31 09:47:48;;;;;;;;;;;;;;;8.21;75.10;98890.47;4999138;28;19913;-79
2021/01/31 09:50:32;;;;;;;;;;;;;;;8.22;75.35;98910.19;4998336;28;19914;-78
2021/01/31 09:53:28;;;;;;;;;;;;;;;8.06;75.78;98910.13;4995178;28;20384;-79
2021/01/31 09:56:32;;;;;;;;;;;;;;;7.89;76.96;98911.19;4987729;28;19914;-78
2021/01/31 09:59:26;;;;;;;;;;;;;;;8.28;75.66;98906.88;4986650;28;19913;-78
2021/01/31 10:02:19;;;;;;;;;;;;;;;8.46;74.71;98899.31;4986239;28;19918;-79
2021/01/31 10:05:06;;;;;;;;;;;;;;;8.35;74.80;98904.41;4997442;28;19913;-78
2021/01/31 10:07:50;;;;;;;;;;;;;;;8.55;74.40;98916.19;4977109;28;20297;-78
2021/01/31 10:10:40;;;;;;;;;;;;;;;8.55;74.07;98916.19;4971640;28;19913;-78
2021/01/31 10:13:39;;;;;;;;;;;;;;;8.70;74.14;98899.19;4983511;28;19914;-79
2021/01/31 10:16:27;;;;;;;;;;;;;;;8.67;74.31;98907.22;4995639;28;19913;-80
2021/01/31 10:19:21;;;;;;;;;;;;;;;8.50;74.51;98917.22;4996156;28;19913;-79
2021/01/31 10:22:14;;;;;;;;;;;;;;;8.48;75.60;98930.31;4980944;28;19921;-79
2021/01/31 10:24:59;;;;;;;;;;;;;;;8.45;75.62;98922.88;4996790;28;20487;-78
2021/01/31 10:27:45;;;;;;;;;;;;;;;8.30;74.60;98922.84;4993796;28;19913;-79
2021/01/31 10:30:41;;;;;;;;;;;;;;;8.33;74.12;98922.16;4990464;28;19914;-78
2021/01/31 10:33:37;;;;;;;;;;;;;;;8.15;75.39;98943.25;4993641;28;19914;-78
2021/01/31 10:36:24;;;;;;;;;;;;;;;8.47;73.93;98936.88;4990951;28;19921;-78
2021/01/31 10:39:09;;;;;;;;;;;;;;;8.59;73.47;98936.81;4981817;28;19914;-78
2021/01/31 10:41:55;;;;;;;;;;;;;;;8.41;74.42;98934.75;4997720;28;20031;-79
2021/01/31 10:44:42;;;;;;;;;;;;;;;8.68;73.02;98938.59;5002760;22;19925;-79
2021/01/31 10:47:32;;;;;;;;;;;;;;;8.84;73.13;98934.78;4975354;28;19922;-81
2021/01/31 10:50:19;;;;;;;;;;;;;;;9.00;72.83;98934.81;4962078;28;19914;-80
2021/01/31 10:53:04;;;;;;;;;;;;;;;9.26;71.51;98931.59;4963434;28;19914;-80
2021/01/31 10:55:49;;;;;;;;;;;;;;;9.23;71.47;98924.94;4942611;29;19914;-79
2021/01/31 10:58:33;;;;;;;;;;;;;;;8.76;73.08;98924.09;4946143;29;19914;-78
2021/01/31 11:01:18;;;;;;;;;;;;;;;8.69;73.50;98927.41;4948360;28;20301;-79
2021/01/31 11:04:02;;;;;;;;;;;;;;;8.62;74.03;98929.16;4942567;29;20293;-80
2021/01/31 11:06:47;;;;;;;;;;;;;;;8.63;74.45;98926.09;4964941;28;19914;-80
2021/01/31 11:09:33;;;;;;;;;;;;;;;8.90;73.96;98916.34;4972361;28;19922;-79
2021/01/31 11:12:18;;;;;;;;;;;;;;;9.01;73.64;98923.63;4968192;28;20325;-80
2021/01/31 11:15:03;;;;;;;;;;;;;;;9.06;73.85;98919.84;4948363;28;19914;-80
2021/01/31 11:17:48;;;;;;;;;;;;;;;9.17;72.73;98923.63;4974552;28;19914;-81
2021/01/31 11:20:32;;;;;;;;;;;;;;;9.17;73.06;98923.63;4962960;28;19918;-82
2021/01/31 11:23:17;;;;;;;;;;;;;;;8.99;73.06;98935.94;4969927;28;19914;-84
2021/01/31 11:26:02;;;;;;;;;;;;;;;9.02;73.26;98927.13;4939232;28;19915;-84
2021/01/31 11:28:46;;;;;;;;;;;;;;;9.15;72.69;98920.47;4951295;28;19914;-83
2021/01/31 11:31:30;;;;;;;;;;;;;;;9.30;72.44;98918.91;4943744;28;19918;-84
2021/01/31 11:34:15;;;;;;;;;;;;;;;9.51;71.79;98916.69;4933681;29;19923;-84
2021/01/31 11:36:59;;;;;;;;;;;;;;;9.48;72.06;98920.13;4959592;28;19914;-84
2021/01/31 11:39:44;;;;;;;;;;;;;;;9.84;71.45;98916.31;4936577;28;19918;-83
2021/01/31 11:42:28;;;;;;;;;;;;;;;10.02;70.58;98922.91;4950992;28;19918;-81
2021/01/31 11:45:14;;;;;;;;;;;;;;;9.93;71.33;98918.81;4947244;28;20317;-84
2021/01/31 11:47:58;;;;;;;;;;;;;;;9.75;71.73;98913.00;4959338;28;20380;-83
2021/01/31 11:50:43;;;;;;;;;;;;;;;9.90;71.29;98912.19;4996200;28;19921;-82
2021/01/31 11:53:27;;;;;;;;;;;;;;;10.04;70.99;98909.78;4967329;28;20293;-84
2021/01/31 11:56:12;;;;;;;;;;;;;;;9.99;70.73;98903.81;4958154;28;19914;-83
2021/01/31 11:58:56;;;;;;;;;;;;;;;10.26;69.64;98911.78;4972738;28;19914;-82
2021/01/31 12:01:40;;;;;;;;;;;;;;;10.57;68.13;98910.06;4966674;28;20095;-83
2021/01/31 12:04:25;;;;;;;;;;;;;;;11.28;65.67;98916.78;4951663;28;19914;-82
2021/01/31 12:07:09;;;;;;;;;;;;;;;11.98;62.98;98915.19;4953708;28;20376;-82
2021/01/31 12:09:54;;;;;;;;;;;;;;;11.39;65.09;98915.03;4951465;28;19914;-83
2021/01/31 12:12:39;;;;;;;;;;;;;;;12.21;63.04;98919.75;4949923;28;19914;-83
2021/01/31 12:15:24;;;;;;;;;;;;;;;12.05;63.04;98921.88;4948720;28;20292;-83
2021/01/31 12:18:08;;;;;;;;;;;;;;;11.93;63.31;98918.25;4976128;28;19914;-85
2021/01/31 12:20:53;;;;;;;;;;;;;;;11.86;64.56;98917.34;4951146;28;19918;-84
2021/01/31 12:23:38;;;;;;;;;;;;;;;11.51;63.43;98910.19;4967173;28;19914;-84
2021/01/31 12:26:23;;;;;;;;;;;;;;;11.88;61.98;98915.84;4965714;28;19914;-84
2021/01/31 12:29:07;;;;;;;;;;;;;;;12.48;60.41;98910.38;4978471;28;19914;-83
2021/01/31 12:31:53;;;;;;;;;;;;;;;12.74;59.08;98906.78;4969308;28;19918;-82
2021/01/31 12:34:38;;;;;;;;;;;;;;;13.25;57.68;98901.44;4966147;28;19914;-83
2021/01/31 12:37:22;;;;;;;;;;;;;;;13.13;56.91;98901.72;4951705;28;20296;-84
2021/01/31 12:40:08;;;;;;;;;;;;;;;13.85;55.24;98881.97;4962382;28;19918;-82
2021/01/31 12:42:52;;;;;;;;;;;;;;;13.70;54.89;98890.09;4962677;28;19913;-83
2021/01/31 12:45:37;;;;;;;;;;;;;;;13.38;53.64;98885.56;4949497;28;19914;-82
2021/01/31 12:48:21;;;;;;;;;;;;;;;13.44;54.24;98887.56;4977401;28;19922;-83
2021/01/31 12:51:06;;;;;;;;;;;;;;;13.23;54.75;98882.72;4953196;28;19914;-83
2021/01/31 12:53:50;;;;;;;;;;;;;;;13.44;55.52;98887.56;4954885;28;19918;-82
2021/01/31 12:56:35;;;;;;;;;;;;;;;13.25;53.92;98883.13;4975569;28;19921;-82
2021/01/31 12:59:19;;;;;;;;;;;;;;;12.59;56.78;98875.84;4982172;28;19913;-82
2021/01/31 13:02:04;;;;;;;;;;;;;;;12.42;57.16;98881.88;4965388;28;19917;-84
2021/01/31 13:04:48;;;;;;;;;;;;;;;12.29;57.14;98878.59;4967506;28;19914;-83
2021/01/31 13:07:33;;;;;;;;;;;;;;;11.90;57.61;98875.38;4967675;28;19914;-84
2021/01/31 13:10:17;;;;;;;;;;;;;;;11.70;59.62;98878.56;4961048;28;19913;-85
2021/01/31 13:13:02;;;;;;;;;;;;;;;11.43;61.59;98883.22;4962075;28;19914;-84
2021/01/31 13:15:47;;;;;;;;;;;;;;;11.17;62.25;98883.19;4965728;28;20367;-83
2021/01/31 13:18:31;;;;;;;;;;;;;;;11.02;63.10;98890.34;4964143;28;20380;-84
2021/01/31 13:21:16;;;;;;;;;;;;;;;10.88;63.90;98884.63;4960310;28;19918;-82
2021/01/31 13:24:02;;;;;;;;;;;;;;;10.76;64.37;98882.88;4964121;28;19918;-83
2021/01/31 13:26:47;;;;;;;;;;;;;;;10.72;64.60;98890.16;4987071;28;19914;-83
2021/01/31 13:29:32;;;;;;;;;;;;;;;10.72;64.81;98892.88;4962200;28;19914;-83
2021/01/31 13:32:16;;;;;;;;;;;;;;;10.68;65.49;98905.63;4985613;28;19917;-85
2021/01/31 13:35:02;;;;;;;;;;;;;;;10.54;66.10;98902.66;4974850;28;19914;-82
2021/01/31 13:37:46;;;;;;;;;;;;;;;10.43;66.47;98913.31;4966295;28;19913;-85
2021/01/31 13:40:31;;;;;;;;;;;;;;;10.43;66.69;98907.09;4979020;28;19914;-82
2021/01/31 13:43:16;;;;;;;;;;;;;;;10.43;67.10;98917.94;4997702;28;20292;-83
2021/01/31 13:46:01;;;;;;;;;;;;;;;10.47;67.50;98919.59;4993506;28;20291;-82
2021/01/31 13:48:45;;;;;;;;;;;;;;;10.49;67.90;98919.25;4965228;28;19913;-82
2021/01/31 13:51:29;;;;;;;;;;;;;;;10.37;69.07;98912.03;4969388;28;20377;-82
2021/01/31 13:54:15;;;;;;;;;;;;;;;10.41;69.62;98912.13;4967253;28;19914;-81
2021/01/31 13:56:59;;;;;;;;;;;;;;;10.39;69.99;98922.53;4962925;28;19921;-81
2021/01/31 13:59:44;;;;;;;;;;;;;;;10.34;70.20;98926.34;4962830;28;19914;-83
2021/01/31 14:02:29;;;;;;;;;;;;;;;10.36;70.17;98923.25;4977719;28;19918;-81
2021/01/31 14:05:15;;;;;;;;;;;;;;;10.39;70.94;98925.25;4996384;28;19914;-82
2021/01/31 14:07:59;;;;;;;;;;;;;;;10.67;70.80;98928.53;4984577;28;19913;-78
2021/01/31 14:10:44;;;;;;;;;;;;;;;10.79;71.04;98931.09;4972133;28;19913;-77
2021/01/31 14:13:28;;;;;;;;;;;;;;;10.90;70.67;98932.09;4974550;28;19913;-78
2021/01/31 14:16:13;;;;;;;;;;;;;;;11.01;70.77;98933.06;4981398;28;19913;-80
2021/01/31 14:18:57;;;;;;;;;;;;;;;11.15;70.61;98927.88;4971614;28;19918;-78
2021/01/31 14:21:42;;;;;;;;;;;;;;;11.24;70.44;98937.72;4965982;28;19918;-78
2021/01/31 14:24:26;;;;;;;;;;;;;;;11.30;70.41;98942.50;4985718;28;19918;-79
2021/01/31 14:27:11;;;;;;;;;;;;;;;11.36;70.38;98937.53;4987723;28;19914;-80
2021/01/31 14:29:56;;;;;;;;;;;;;;;11.40;70.23;98943.81;4970885;28;20295;-78
2021/01/31 14:32:40;;;;;;;;;;;;;;;11.46;70.37;98942.38;4978592;28;19918;-79
2021/01/31 14:35:27;;;;;;;;;;;;;;;11.49;70.19;98949.81;4958271;28;19914;-81
2021/01/31 14:38:11;;;;;;;;;;;;;;;11.52;70.19;98952.59;4974132;28;19914;-80
2021/01/31 14:40:56;;;;;;;;;;;;;;;11.56;70.02;98960.81;4973385;28;19917;-80
2021/01/31 14:43:41;;;;;;;;;;;;;;;11.61;69.96;98957.00;4979445;28;19918;-80
2021/01/31 14:46:26;;;;;;;;;;;;;;;11.64;70.00;98964.41;4982593;28;20368;-80